sensor_id;sensor_type;location;lat;lon;timestamp;P1;durP1;ratioP1;P2;durP2;ratioP2
62338;SDS011;48368;53.406;6.214;2022-09-27T00:02:15;5.35;;;0.52;;
62338;SDS011;48368;53.406;6.214;2022-09-27T00:04:41;2.30;;;0.40;;
62338;SDS011;48368;53.406;6.214;2022-09-27T00:07:07;5.00;;;0.68;;
62338;SDS011;48368;53.406;6.214;2022-09-27T00:09:34;6.53;;;0.45;;
62338;SDS011;48368;53.406;6.214;2022-09-27T00:12:00;12.57;;;1.85;;
62338;SDS011;48368;53.406;6.214;2022-09-27T00:14:25;8.40;;;1.10;;
62338;SDS011;48368;53.406;6.214;2022-09-27T00:16:51;4.55;;;1.30;;
62338;SDS011;48368;53.406;6.214;2022-09-27T00:19:18;5.82;;;0.50;;
62338;SDS011;48368;53.406;6.214;2022-09-27T00:21:46;4.15;;;0.88;;
62338;SDS011;48368;53.406;6.214;2022-09-27T00:24:12;7.28;;;0.80;;
62338;SDS011;48368;53.406;6.214;2022-09-27T00:26:40;5.43;;;0.60;;
62338;SDS011;48368;53.406;6.214;2022-09-27T00:29:06;5.60;;;0.80;;
62338;SDS011;48368;53.406;6.214;2022-09-27T00:31:31;8.35;;;2.05;;
62338;SDS011;48368;53.406;6.214;2022-09-27T00:33:58;6.32;;;0.80;;
62338;SDS011;48368;53.406;6.214;2022-09-27T00:36:26;3.80;;;0.50;;
62338;SDS011;48368;53.406;6.214;2022-09-27T00:38:53;4.13;;;0.60;;
62338;SDS011;48368;53.406;6.214;2022-09-27T00:41:37;5.63;;;0.50;;
62338;SDS011;48368;53.406;6.214;2022-09-27T00:44:04;4.63;;;0.50;;
62338;SDS011;48368;53.406;6.214;2022-09-27T00:46:52;5.88;;;0.50;;
62338;SDS011;48368;53.406;6.214;2022-09-27T00:49:22;8.05;;;0.60;;
62338;SDS011;48368;53.406;6.214;2022-09-27T00:52:02;3.60;;;0.55;;
62338;SDS011;48368;53.406;6.214;2022-09-27T00:54:31;4.57;;;0.60;;
62338;SDS011;48368;53.406;6.214;2022-09-27T00:57:00;5.35;;;1.10;;
62338;SDS011;48368;53.406;6.214;2022-09-27T00:59:38;5.15;;;0.93;;
62338;SDS011;48368;53.406;6.214;2022-09-27T03:20:27;5.32;;;0.40;;
62338;SDS011;48368;53.406;6.214;2022-09-27T03:22:53;5.20;;;0.52;;
62338;SDS011;48368;53.406;6.214;2022-09-27T03:25:20;13.88;;;2.05;;
62338;SDS011;48368;53.406;6.214;2022-09-27T03:27:46;5.80;;;0.75;;
62338;SDS011;48368;53.406;6.214;2022-09-27T03:30:12;6.43;;;0.70;;
62338;SDS011;48368;53.406;6.214;2022-09-27T03:32:41;7.90;;;0.60;;
62338;SDS011;48368;53.406;6.214;2022-09-27T03:35:08;15.10;;;2.65;;
62338;SDS011;48368;53.406;6.214;2022-09-27T03:37:34;8.90;;;1.30;;
62338;SDS011;48368;53.406;6.214;2022-09-27T03:40:00;13.38;;;1.77;;
62338;SDS011;48368;53.406;6.214;2022-09-27T03:42:25;10.13;;;1.08;;
62338;SDS011;48368;53.406;6.214;2022-09-27T03:44:54;8.68;;;0.70;;
62338;SDS011;48368;53.406;6.214;2022-09-27T03:47:19;9.35;;;1.52;;
62338;SDS011;48368;53.406;6.214;2022-09-27T03:49:46;7.45;;;1.52;;
62338;SDS011;48368;53.406;6.214;2022-09-27T03:52:12;5.13;;;0.70;;
62338;SDS011;48368;53.406;6.214;2022-09-27T03:54:37;7.40;;;0.80;;
62338;SDS011;48368;53.406;6.214;2022-09-27T03:57:03;4.93;;;0.93;;
62338;SDS011;48368;53.406;6.214;2022-09-27T03:59:29;6.60;;;0.85;;
62338;SDS011;48368;53.406;6.214;2022-09-27T04:01:55;7.70;;;1.15;;
62338;SDS011;48368;53.406;6.214;2022-09-27T04:04:20;11.13;;;1.10;;
62338;SDS011;48368;53.406;6.214;2022-09-27T04:06:46;6.70;;;0.75;;
62338;SDS011;48368;53.406;6.214;2022-09-27T04:09:12;9.27;;;0.65;;
62338;SDS011;48368;53.406;6.214;2022-09-27T04:11:37;4.57;;;0.60;;
62338;SDS011;48368;53.406;6.214;2022-09-27T04:14:03;6.13;;;0.82;;
62338;SDS011;48368;53.406;6.214;2022-09-27T04:16:29;7.20;;;0.95;;
62338;SDS011;48368;53.406;6.214;2022-09-27T04:18:56;6.97;;;1.00;;
62338;SDS011;48368;53.406;6.214;2022-09-27T04:21:22;7.80;;;1.40;;
62338;SDS011;48368;53.406;6.214;2022-09-27T04:23:48;10.88;;;1.67;;
62338;SDS011;48368;53.406;6.214;2022-09-27T04:26:14;7.38;;;1.23;;
62338;SDS011;48368;53.406;6.214;2022-09-27T04:28:40;12.18;;;1.38;;
62338;SDS011;48368;53.406;6.214;2022-09-27T04:31:05;8.55;;;0.90;;
62338;SDS011;48368;53.406;6.214;2022-09-27T04:33:31;6.93;;;0.82;;
62338;SDS011;48368;53.406;6.214;2022-09-27T04:36:06;4.75;;;0.60;;
62338;SDS011;48368;53.406;6.214;2022-09-27T04:38:50;6.13;;;0.50;;
62338;SDS011;48368;53.406;6.214;2022-09-27T04:41:19;4.68;;;0.73;;
62338;SDS011;48368;53.406;6.214;2022-09-27T04:43:47;8.05;;;0.95;;
62338;SDS011;48368;53.406;6.214;2022-09-27T04:46:14;8.70;;;0.70;;
62338;SDS011;48368;53.406;6.214;2022-09-27T04:48:39;5.75;;;0.63;;
62338;SDS011;48368;53.406;6.214;2022-09-27T04:51:05;7.47;;;0.50;;
62338;SDS011;48368;53.406;6.214;2022-09-27T04:53:31;3.05;;;0.63;;
62338;SDS011;48368;53.406;6.214;2022-09-27T04:55:57;6.05;;;0.63;;
62338;SDS011;48368;53.406;6.214;2022-09-27T04:58:23;4.93;;;0.60;;
62338;SDS011;48368;53.406;6.214;2022-09-27T05:00:49;5.47;;;1.13;;
62338;SDS011;48368;53.406;6.214;2022-09-27T05:03:20;4.57;;;0.65;;
62338;SDS011;48368;53.406;6.214;2022-09-27T05:05:46;4.57;;;0.30;;
62338;SDS011;48368;53.406;6.214;2022-09-27T05:08:11;3.63;;;0.60;;
62338;SDS011;48368;53.406;6.214;2022-09-27T05:10:37;3.60;;;0.80;;
62338;SDS011;48368;53.406;6.214;2022-09-27T05:13:03;5.70;;;0.90;;
62338;SDS011;48368;53.406;6.214;2022-09-27T05:15:28;7.20;;;1.27;;
62338;SDS011;48368;53.406;6.214;2022-09-27T05:17:54;6.60;;;0.95;;
62338;SDS011;48368;53.406;6.214;2022-09-27T05:20:21;6.90;;;0.73;;
62338;SDS011;48368;53.406;6.214;2022-09-27T05:22:46;3.85;;;0.60;;
62338;SDS011;48368;53.406;6.214;2022-09-27T05:25:12;5.68;;;1.10;;
62338;SDS011;48368;53.406;6.214;2022-09-27T05:27:38;7.22;;;0.93;;
62338;SDS011;48368;53.406;6.214;2022-09-27T05:30:04;7.80;;;0.80;;
62338;SDS011;48368;53.406;6.214;2022-09-27T05:32:32;4.07;;;1.23;;
62338;SDS011;48368;53.406;6.214;2022-09-27T05:34:58;2.67;;;0.35;;
62338;SDS011;48368;53.406;6.214;2022-09-27T05:55:49;6.75;;;0.70;;
62338;SDS011;48368;53.406;6.214;2022-09-27T05:58:14;6.78;;;0.68;;
62338;SDS011;48368;53.406;6.214;2022-09-27T06:04:21;6.97;;;0.70;;
62338;SDS011;48368;53.406;6.214;2022-09-27T06:06:47;6.07;;;0.60;;
62338;SDS011;48368;53.406;6.214;2022-09-27T06:09:13;4.95;;;0.63;;
62338;SDS011;48368;53.406;6.214;2022-09-27T06:11:40;6.43;;;0.50;;
62338;SDS011;48368;53.406;6.214;2022-09-27T06:14:08;11.15;;;0.75;;
62338;SDS011;48368;53.406;6.214;2022-09-27T06:16:33;4.72;;;0.55;;
62338;SDS011;48368;53.406;6.214;2022-09-27T06:18:59;5.75;;;0.70;;
62338;SDS011;48368;53.406;6.214;2022-09-27T06:21:25;5.40;;;0.85;;
62338;SDS011;48368;53.406;6.214;2022-09-27T06:23:52;5.88;;;0.70;;
62338;SDS011;48368;53.406;6.214;2022-09-27T06:26:19;5.18;;;0.50;;
62338;SDS011;48368;53.406;6.214;2022-09-27T06:28:48;3.83;;;0.47;;
62338;SDS011;48368;53.406;6.214;2022-09-27T06:31:15;3.05;;;0.30;;
62338;SDS011;48368;53.406;6.214;2022-09-27T06:33:40;4.43;;;0.50;;
62338;SDS011;48368;53.406;6.214;2022-09-27T06:36:06;3.70;;;0.32;;
62338;SDS011;48368;53.406;6.214;2022-09-27T06:38:32;3.47;;;0.50;;
62338;SDS011;48368;53.406;6.214;2022-09-27T06:41:02;5.65;;;0.70;;
62338;SDS011;48368;53.406;6.214;2022-09-27T06:43:30;4.78;;;0.65;;
62338;SDS011;48368;53.406;6.214;2022-09-27T06:46:01;3.63;;;0.45;;
62338;SDS011;48368;53.406;6.214;2022-09-27T06:52:14;3.95;;;0.57;;
62338;SDS011;48368;53.406;6.214;2022-09-27T06:54:40;8.50;;;0.88;;
62338;SDS011;48368;53.406;6.214;2022-09-27T06:57:05;5.70;;;0.80;;
62338;SDS011;48368;53.406;6.214;2022-09-27T06:59:31;5.28;;;0.60;;
62338;SDS011;48368;53.406;6.214;2022-09-27T07:02:15;7.47;;;0.93;;
62338;SDS011;48368;53.406;6.214;2022-09-27T07:04:41;4.82;;;0.70;;
62338;SDS011;48368;53.406;6.214;2022-09-27T07:07:07;6.45;;;0.82;;
62338;SDS011;48368;53.406;6.214;2022-09-27T07:09:33;8.63;;;0.70;;
62338;SDS011;48368;53.406;6.214;2022-09-27T07:11:58;2.72;;;0.40;;
62338;SDS011;48368;53.406;6.214;2022-09-27T07:14:24;3.63;;;0.65;;
62338;SDS011;48368;53.406;6.214;2022-09-27T07:16:50;4.50;;;0.60;;
62338;SDS011;48368;53.406;6.214;2022-09-27T07:19:16;5.38;;;0.65;;
62338;SDS011;48368;53.406;6.214;2022-09-27T07:21:44;6.13;;;0.43;;
62338;SDS011;48368;53.406;6.214;2022-09-27T07:24:10;3.65;;;0.40;;
62338;SDS011;48368;53.406;6.214;2022-09-27T07:26:36;2.22;;;0.35;;
62338;SDS011;48368;53.406;6.214;2022-09-27T07:29:01;3.53;;;0.50;;
62338;SDS011;48368;53.406;6.214;2022-09-27T07:31:27;4.15;;;0.30;;
62338;SDS011;48368;53.406;6.214;2022-09-27T07:33:54;3.78;;;0.35;;
62338;SDS011;48368;53.406;6.214;2022-09-27T07:36:20;1.70;;;0.30;;
62338;SDS011;48368;53.406;6.214;2022-09-27T07:38:45;7.70;;;0.50;;
62338;SDS011;48368;53.406;6.214;2022-09-27T07:41:12;4.78;;;0.70;;
62338;SDS011;48368;53.406;6.214;2022-09-27T07:43:39;3.97;;;0.57;;
62338;SDS011;48368;53.406;6.214;2022-09-27T07:46:05;10.50;;;1.02;;
62338;SDS011;48368;53.406;6.214;2022-09-27T07:48:32;5.22;;;0.55;;
62338;SDS011;48368;53.406;6.214;2022-09-27T07:50:57;1.38;;;0.40;;
62338;SDS011;48368;53.406;6.214;2022-09-27T07:53:24;2.83;;;0.32;;
62338;SDS011;48368;53.406;6.214;2022-09-27T07:55:52;2.97;;;0.40;;
62338;SDS011;48368;53.406;6.214;2022-09-27T07:58:18;2.75;;;0.60;;
62338;SDS011;48368;53.406;6.214;2022-09-27T08:00:45;6.45;;;0.90;;
62338;SDS011;48368;53.406;6.214;2022-09-27T08:03:12;5.60;;;1.15;;
62338;SDS011;48368;53.406;6.214;2022-09-27T08:05:40;4.90;;;0.93;;
62338;SDS011;48368;53.406;6.214;2022-09-27T08:08:07;5.80;;;0.98;;
62338;SDS011;48368;53.406;6.214;2022-09-27T08:10:33;7.95;;;1.80;;
62338;SDS011;48368;53.406;6.214;2022-09-27T08:13:02;4.18;;;0.30;;
62338;SDS011;48368;53.406;6.214;2022-09-27T08:15:32;2.80;;;0.60;;
62338;SDS011;48368;53.406;6.214;2022-09-27T08:18:03;3.35;;;0.52;;
62338;SDS011;48368;53.406;6.214;2022-09-27T08:20:31;3.70;;;0.30;;
62338;SDS011;48368;53.406;6.214;2022-09-27T08:22:57;2.67;;;0.20;;
62338;SDS011;48368;53.406;6.214;2022-09-27T08:25:23;4.15;;;0.43;;
62338;SDS011;48368;53.406;6.214;2022-09-27T08:27:55;2.22;;;0.47;;
62338;SDS011;48368;53.406;6.214;2022-09-27T08:30:25;3.22;;;0.30;;
62338;SDS011;48368;53.406;6.214;2022-09-27T08:32:55;2.70;;;0.25;;
62338;SDS011;48368;53.406;6.214;2022-09-27T08:35:22;4.28;;;0.38;;
62338;SDS011;48368;53.406;6.214;2022-09-27T08:37:52;2.78;;;0.47;;
62338;SDS011;48368;53.406;6.214;2022-09-27T08:40:24;6.72;;;1.00;;
62338;SDS011;48368;53.406;6.214;2022-09-27T08:43:27;5.97;;;0.65;;
62338;SDS011;48368;53.406;6.214;2022-09-27T08:49:08;5.25;;;0.45;;
62338;SDS011;48368;53.406;6.214;2022-09-27T08:51:38;2.13;;;0.30;;
62338;SDS011;48368;53.406;6.214;2022-09-27T08:54:07;3.15;;;0.50;;
62338;SDS011;48368;53.406;6.214;2022-09-27T08:56:43;4.28;;;0.40;;
62338;SDS011;48368;53.406;6.214;2022-09-27T08:59:13;8.15;;;0.60;;
62338;SDS011;48368;53.406;6.214;2022-09-27T09:01:45;5.35;;;0.50;;
62338;SDS011;48368;53.406;6.214;2022-09-27T09:04:18;4.78;;;0.65;;
62338;SDS011;48368;53.406;6.214;2022-09-27T09:12:57;2.70;;;0.57;;
62338;SDS011;48368;53.406;6.214;2022-09-27T09:15:49;5.18;;;0.45;;
62338;SDS011;48368;53.406;6.214;2022-09-27T15:12:29;3.78;;;1.35;;
62338;SDS011;48368;53.406;6.214;2022-09-27T15:14:56;1.88;;;0.43;;
62338;SDS011;48368;53.406;6.214;2022-09-27T15:17:22;2.60;;;0.25;;
62338;SDS011;48368;53.406;6.214;2022-09-27T15:20:14;2.83;;;0.30;;
62338;SDS011;48368;53.406;6.214;2022-09-27T15:22:52;2.45;;;0.38;;
62338;SDS011;48368;53.406;6.214;2022-09-27T15:27:59;3.75;;;0.70;;
62338;SDS011;48368;53.406;6.214;2022-09-27T15:30:38;2.58;;;0.43;;
62338;SDS011;48368;53.406;6.214;2022-09-27T15:33:06;2.35;;;0.40;;
62338;SDS011;48368;53.406;6.214;2022-09-27T15:35:53;1.25;;;0.40;;
62338;SDS011;48368;53.406;6.214;2022-09-27T15:40:56;2.05;;;0.60;;
62338;SDS011;48368;53.406;6.214;2022-09-27T15:43:28;1.98;;;0.30;;
62338;SDS011;48368;53.406;6.214;2022-09-27T15:45:54;2.92;;;1.08;;
62338;SDS011;48368;53.406;6.214;2022-09-27T15:48:25;2.70;;;0.60;;
62338;SDS011;48368;53.406;6.214;2022-09-27T15:50:51;2.95;;;0.70;;
62338;SDS011;48368;53.406;6.214;2022-09-27T15:56:04;1.27;;;0.43;;
62338;SDS011;48368;53.406;6.214;2022-09-27T15:58:54;2.22;;;0.68;;
62338;SDS011;48368;53.406;6.214;2022-09-27T16:01:20;2.00;;;0.43;;
62338;SDS011;48368;53.406;6.214;2022-09-27T16:03:46;2.00;;;0.30;;
62338;SDS011;48368;53.406;6.214;2022-09-27T16:06:12;1.63;;;0.30;;
62338;SDS011;48368;53.406;6.214;2022-09-27T16:08:39;1.88;;;0.40;;
62338;SDS011;48368;53.406;6.214;2022-09-27T16:11:04;3.17;;;0.30;;
62338;SDS011;48368;53.406;6.214;2022-09-27T16:13:30;1.35;;;0.20;;
62338;SDS011;48368;53.406;6.214;2022-09-27T16:15:56;2.28;;;0.20;;
62338;SDS011;48368;53.406;6.214;2022-09-27T16:18:22;1.95;;;0.25;;
62338;SDS011;48368;53.406;6.214;2022-09-27T16:20:48;2.22;;;0.22;;
62338;SDS011;48368;53.406;6.214;2022-09-27T16:23:13;0.45;;;0.10;;
62338;SDS011;48368;53.406;6.214;2022-09-27T16:25:39;1.30;;;0.30;;
62338;SDS011;48368;53.406;6.214;2022-09-27T16:28:04;2.95;;;0.30;;
62338;SDS011;48368;53.406;6.214;2022-09-27T16:30:30;3.20;;;0.32;;
62338;SDS011;48368;53.406;6.214;2022-09-27T16:32:57;0.50;;;0.10;;
62338;SDS011;48368;53.406;6.214;2022-09-27T16:35:26;4.72;;;1.00;;
62338;SDS011;48368;53.406;6.214;2022-09-27T16:37:52;4.82;;;0.70;;
62338;SDS011;48368;53.406;6.214;2022-09-27T16:40:18;3.80;;;0.30;;
62338;SDS011;48368;53.406;6.214;2022-09-27T16:42:45;2.80;;;0.55;;
62338;SDS011;48368;53.406;6.214;2022-09-27T16:45:13;4.32;;;0.40;;
62338;SDS011;48368;53.406;6.214;2022-09-27T16:47:41;1.80;;;0.20;;
62338;SDS011;48368;53.406;6.214;2022-09-27T16:50:08;2.38;;;0.20;;
62338;SDS011;48368;53.406;6.214;2022-09-27T16:52:53;3.13;;;0.30;;
62338;SDS011;48368;53.406;6.214;2022-09-27T16:55:19;2.58;;;0.10;;
62338;SDS011;48368;53.406;6.214;2022-09-27T16:57:45;2.38;;;0.13;;
62338;SDS011;48368;53.406;6.214;2022-09-27T17:00:12;0.32;;;0.10;;
62338;SDS011;48368;53.406;6.214;2022-09-27T17:02:41;0.65;;;0.10;;
62338;SDS011;48368;53.406;6.214;2022-09-27T17:07:37;2.97;;;0.10;;
62338;SDS011;48368;53.406;6.214;2022-09-27T17:10:03;4.32;;;0.20;;
62338;SDS011;48368;53.406;6.214;2022-09-27T17:12:34;1.88;;;0.15;;
62338;SDS011;48368;53.406;6.214;2022-09-27T17:15:00;2.88;;;0.60;;
62338;SDS011;48368;53.406;6.214;2022-09-27T17:17:26;4.22;;;0.98;;
62338;SDS011;48368;53.406;6.214;2022-09-27T17:19:54;10.68;;;3.10;;
62338;SDS011;48368;53.406;6.214;2022-09-27T17:22:23;11.20;;;4.28;;
62338;SDS011;48368;53.406;6.214;2022-09-27T17:24:48;6.15;;;2.50;;
62338;SDS011;48368;53.406;6.214;2022-09-27T17:27:15;4.10;;;1.15;;
62338;SDS011;48368;53.406;6.214;2022-09-27T17:29:41;8.00;;;3.20;;
62338;SDS011;48368;53.406;6.214;2022-09-27T17:32:10;6.28;;;1.65;;
62338;SDS011;48368;53.406;6.214;2022-09-27T17:34:37;8.68;;;3.30;;
62338;SDS011;48368;53.406;6.214;2022-09-27T17:37:07;9.85;;;2.60;;
62338;SDS011;48368;53.406;6.214;2022-09-27T17:39:34;9.48;;;2.22;;
62338;SDS011;48368;53.406;6.214;2022-09-27T17:42:00;14.90;;;5.50;;
62338;SDS011;48368;53.406;6.214;2022-09-27T17:44:29;11.55;;;3.35;;
62338;SDS011;48368;53.406;6.214;2022-09-27T17:47:00;8.85;;;2.00;;
62338;SDS011;48368;53.406;6.214;2022-09-27T17:49:44;11.50;;;3.20;;
62338;SDS011;48368;53.406;6.214;2022-09-27T17:52:29;8.80;;;2.92;;
62338;SDS011;48368;53.406;6.214;2022-09-27T17:54:55;6.38;;;1.17;;
62338;SDS011;48368;53.406;6.214;2022-09-27T17:57:22;2.40;;;0.65;;
62338;SDS011;48368;53.406;6.214;2022-09-27T17:59:48;6.07;;;1.58;;
62338;SDS011;48368;53.406;6.214;2022-09-27T18:02:15;8.45;;;1.95;;
62338;SDS011;48368;53.406;6.214;2022-09-27T18:04:40;3.30;;;1.20;;
62338;SDS011;48368;53.406;6.214;2022-09-27T18:07:06;4.57;;;1.48;;
62338;SDS011;48368;53.406;6.214;2022-09-27T18:09:32;6.07;;;1.10;;
62338;SDS011;48368;53.406;6.214;2022-09-27T18:11:58;2.22;;;0.28;;
62338;SDS011;48368;53.406;6.214;2022-09-27T18:14:24;4.38;;;0.57;;
62338;SDS011;48368;53.406;6.214;2022-09-27T18:16:53;2.35;;;0.30;;
62338;SDS011;48368;53.406;6.214;2022-09-27T18:19:21;2.92;;;0.45;;
62338;SDS011;48368;53.406;6.214;2022-09-27T18:21:47;4.07;;;0.50;;
62338;SDS011;48368;53.406;6.214;2022-09-27T18:24:14;1.58;;;0.30;;
62338;SDS011;48368;53.406;6.214;2022-09-27T18:26:40;3.97;;;0.65;;
62338;SDS011;48368;53.406;6.214;2022-09-27T18:29:10;4.00;;;0.40;;
62338;SDS011;48368;53.406;6.214;2022-09-27T18:31:41;3.20;;;0.30;;
62338;SDS011;48368;53.406;6.214;2022-09-27T18:34:10;1.00;;;0.20;;
62338;SDS011;48368;53.406;6.214;2022-09-27T18:36:35;4.03;;;0.50;;
62338;SDS011;48368;53.406;6.214;2022-09-27T18:39:13;0.98;;;0.30;;
62338;SDS011;48368;53.406;6.214;2022-09-27T18:41:42;1.02;;;0.22;;
62338;SDS011;48368;53.406;6.214;2022-09-27T18:44:11;2.70;;;0.60;;
62338;SDS011;48368;53.406;6.214;2022-09-27T18:46:38;7.07;;;0.88;;
62338;SDS011;48368;53.406;6.214;2022-09-27T18:49:04;8.38;;;2.60;;
62338;SDS011;48368;53.406;6.214;2022-09-27T18:51:41;6.03;;;2.35;;
62338;SDS011;48368;53.406;6.214;2022-09-27T18:54:14;4.10;;;1.50;;
62338;SDS011;48368;53.406;6.214;2022-09-27T18:56:45;2.67;;;1.00;;
62338;SDS011;48368;53.406;6.214;2022-09-27T18:59:12;3.30;;;0.75;;
62338;SDS011;48368;53.406;6.214;2022-09-27T19:01:40;4.47;;;1.13;;
62338;SDS011;48368;53.406;6.214;2022-09-27T19:04:09;3.72;;;1.15;;
62338;SDS011;48368;53.406;6.214;2022-09-27T19:06:36;1.45;;;0.50;;
62338;SDS011;48368;53.406;6.214;2022-09-27T19:09:03;2.38;;;0.73;;
62338;SDS011;48368;53.406;6.214;2022-09-27T19:11:29;6.75;;;0.80;;
62338;SDS011;48368;53.406;6.214;2022-09-27T19:13:56;3.63;;;0.50;;
62338;SDS011;48368;53.406;6.214;2022-09-27T19:16:26;3.40;;;0.77;;
62338;SDS011;48368;53.406;6.214;2022-09-27T19:18:52;1.45;;;0.55;;
62338;SDS011;48368;53.406;6.214;2022-09-27T19:21:19;2.53;;;0.63;;
62338;SDS011;48368;53.406;6.214;2022-09-27T19:23:50;5.10;;;1.40;;
62338;SDS011;48368;53.406;6.214;2022-09-27T19:26:17;5.88;;;1.10;;
62338;SDS011;48368;53.406;6.214;2022-09-27T19:28:44;2.90;;;0.93;;
62338;SDS011;48368;53.406;6.214;2022-09-27T19:31:15;7.50;;;2.33;;
62338;SDS011;48368;53.406;6.214;2022-09-27T19:33:43;4.72;;;1.30;;
62338;SDS011;48368;53.406;6.214;2022-09-27T19:36:09;6.03;;;1.20;;
62338;SDS011;48368;53.406;6.214;2022-09-27T19:38:36;5.57;;;1.35;;
62338;SDS011;48368;53.406;6.214;2022-09-27T19:41:03;5.63;;;2.25;;
62338;SDS011;48368;53.406;6.214;2022-09-27T19:43:30;4.60;;;1.70;;
62338;SDS011;48368;53.406;6.214;2022-09-27T19:46:03;5.72;;;2.15;;
62338;SDS011;48368;53.406;6.214;2022-09-27T19:48:38;3.13;;;1.30;;
62338;SDS011;48368;53.406;6.214;2022-09-27T19:51:03;5.68;;;2.22;;
62338;SDS011;48368;53.406;6.214;2022-09-27T19:53:31;16.00;;;5.93;;
62338;SDS011;48368;53.406;6.214;2022-09-27T19:55:58;8.38;;;2.65;;
62338;SDS011;48368;53.406;6.214;2022-09-27T19:58:26;4.78;;;1.02;;
62338;SDS011;48368;53.406;6.214;2022-09-27T20:00:59;6.47;;;1.80;;
62338;SDS011;48368;53.406;6.214;2022-09-27T20:03:25;6.68;;;1.20;;
62338;SDS011;48368;53.406;6.214;2022-09-27T20:05:55;4.28;;;1.10;;
62338;SDS011;48368;53.406;6.214;2022-09-27T20:08:21;3.45;;;1.10;;
62338;SDS011;48368;53.406;6.214;2022-09-27T20:10:58;5.68;;;1.15;;
62338;SDS011;48368;53.406;6.214;2022-09-27T20:13:29;4.18;;;1.38;;
62338;SDS011;48368;53.406;6.214;2022-09-27T20:16:00;3.10;;;0.88;;
62338;SDS011;48368;53.406;6.214;2022-09-27T20:18:39;3.95;;;0.90;;
62338;SDS011;48368;53.406;6.214;2022-09-27T20:21:08;4.90;;;1.38;;
62338;SDS011;48368;53.406;6.214;2022-09-27T20:23:35;6.78;;;1.60;;
62338;SDS011;48368;53.406;6.214;2022-09-27T20:26:03;5.32;;;1.33;;
62338;SDS011;48368;53.406;6.214;2022-09-27T20:28:29;3.40;;;1.67;;
62338;SDS011;48368;53.406;6.214;2022-09-27T20:30:55;7.82;;;2.08;;
62338;SDS011;48368;53.406;6.214;2022-09-27T20:33:25;5.70;;;2.00;;
62338;SDS011;48368;53.406;6.214;2022-09-27T20:36:24;5.07;;;1.95;;
62338;SDS011;48368;53.406;6.214;2022-09-27T20:38:52;4.90;;;1.85;;
62338;SDS011;48368;53.406;6.214;2022-09-27T20:41:26;3.80;;;2.33;;
62338;SDS011;48368;53.406;6.214;2022-09-27T20:43:55;4.00;;;1.98;;
62338;SDS011;48368;53.406;6.214;2022-09-27T20:46:24;5.05;;;1.60;;
62338;SDS011;48368;53.406;6.214;2022-09-27T20:48:54;6.63;;;2.00;;
62338;SDS011;48368;53.406;6.214;2022-09-27T20:51:21;3.70;;;1.90;;
62338;SDS011;48368;53.406;6.214;2022-09-27T20:53:47;4.10;;;1.60;;
62338;SDS011;48368;53.406;6.214;2022-09-27T20:56:22;4.40;;;1.75;;
62338;SDS011;48368;53.406;6.214;2022-09-27T20:58:56;4.65;;;1.55;;
62338;SDS011;48368;53.406;6.214;2022-09-27T21:01:23;3.28;;;1.50;;
62338;SDS011;48368;53.406;6.214;2022-09-27T21:03:53;4.38;;;1.90;;
62338;SDS011;48368;53.406;6.214;2022-09-27T21:06:20;3.25;;;1.40;;
62338;SDS011;48368;53.406;6.214;2022-09-27T21:08:51;3.97;;;1.52;;
62338;SDS011;48368;53.406;6.214;2022-09-27T21:11:20;4.22;;;1.48;;
62338;SDS011;48368;53.406;6.214;2022-09-27T21:13:47;3.47;;;1.73;;
62338;SDS011;48368;53.406;6.214;2022-09-27T21:16:17;6.13;;;1.70;;
62338;SDS011;48368;53.406;6.214;2022-09-27T21:18:46;5.25;;;1.85;;
62338;SDS011;48368;53.406;6.214;2022-09-27T21:21:16;3.30;;;1.35;;
62338;SDS011;48368;53.406;6.214;2022-09-27T21:23:43;6.07;;;1.45;;
62338;SDS011;48368;53.406;6.214;2022-09-27T21:28:40;2.45;;;1.20;;
62338;SDS011;48368;53.406;6.214;2022-09-27T21:31:08;4.85;;;1.30;;
62338;SDS011;48368;53.406;6.214;2022-09-27T21:33:35;2.05;;;1.13;;
62338;SDS011;48368;53.406;6.214;2022-09-27T21:36:01;2.30;;;1.20;;
62338;SDS011;48368;53.406;6.214;2022-09-27T21:38:29;2.97;;;1.30;;
62338;SDS011;48368;53.406;6.214;2022-09-27T21:43:24;4.47;;;1.60;;
62338;SDS011;48368;53.406;6.214;2022-09-27T21:45:51;4.70;;;1.50;;
62338;SDS011;48368;53.406;6.214;2022-09-27T21:48:17;5.60;;;1.92;;
62338;SDS011;48368;53.406;6.214;2022-09-27T21:50:42;3.13;;;1.30;;
62338;SDS011;48368;53.406;6.214;2022-09-27T21:53:08;4.10;;;1.63;;
62338;SDS011;48368;53.406;6.214;2022-09-27T21:55:33;3.42;;;1.67;;
62338;SDS011;48368;53.406;6.214;2022-09-27T21:57:59;3.47;;;1.40;;
62338;SDS011;48368;53.406;6.214;2022-09-27T22:00:25;5.40;;;1.48;;
62338;SDS011;48368;53.406;6.214;2022-09-27T22:02:55;3.42;;;1.63;;
62338;SDS011;48368;53.406;6.214;2022-09-27T22:05:21;2.97;;;1.65;;
62338;SDS011;48368;53.406;6.214;2022-09-27T22:07:47;4.38;;;1.48;;
62338;SDS011;48368;53.406;6.214;2022-09-27T22:10:12;5.60;;;2.30;;
62338;SDS011;48368;53.406;6.214;2022-09-27T22:12:38;4.97;;;1.52;;
62338;SDS011;48368;53.406;6.214;2022-09-27T22:15:04;3.67;;;1.30;;
62338;SDS011;48368;53.406;6.214;2022-09-27T22:17:30;4.38;;;2.10;;
62338;SDS011;48368;53.406;6.214;2022-09-27T22:19:56;4.55;;;2.10;;
62338;SDS011;48368;53.406;6.214;2022-09-27T22:22:21;4.10;;;1.80;;
62338;SDS011;48368;53.406;6.214;2022-09-27T22:24:47;4.93;;;2.13;;
62338;SDS011;48368;53.406;6.214;2022-09-27T22:27:13;4.63;;;2.00;;
62338;SDS011;48368;53.406;6.214;2022-09-27T22:29:38;5.82;;;2.03;;
62338;SDS011;48368;53.406;6.214;2022-09-27T22:32:04;4.50;;;2.00;;
62338;SDS011;48368;53.406;6.214;2022-09-27T22:34:30;4.78;;;1.98;;
62338;SDS011;48368;53.406;6.214;2022-09-27T22:36:58;2.80;;;1.63;;
62338;SDS011;48368;53.406;6.214;2022-09-27T22:39:25;7.40;;;2.10;;
62338;SDS011;48368;53.406;6.214;2022-09-27T22:41:50;3.25;;;2.00;;
62338;SDS011;48368;53.406;6.214;2022-09-27T22:44:16;5.25;;;2.00;;
62338;SDS011;48368;53.406;6.214;2022-09-27T22:46:42;4.00;;;2.42;;
62338;SDS011;48368;53.406;6.214;2022-09-27T22:49:08;3.30;;;1.65;;
62338;SDS011;48368;53.406;6.214;2022-09-27T22:51:33;6.32;;;2.47;;
62338;SDS011;48368;53.406;6.214;2022-09-27T22:53:59;5.20;;;2.30;;
62338;SDS011;48368;53.406;6.214;2022-09-27T22:56:25;4.90;;;1.98;;
62338;SDS011;48368;53.406;6.214;2022-09-27T22:58:50;5.50;;;2.00;;
62338;SDS011;48368;53.406;6.214;2022-09-27T23:01:20;4.30;;;2.30;;
62338;SDS011;48368;53.406;6.214;2022-09-27T23:03:47;4.60;;;2.08;;
62338;SDS011;48368;53.406;6.214;2022-09-27T23:06:15;6.85;;;2.30;;
62338;SDS011;48368;53.406;6.214;2022-09-27T23:08:42;5.10;;;2.50;;
62338;SDS011;48368;53.406;6.214;2022-09-27T23:11:09;6.40;;;2.17;;
62338;SDS011;48368;53.406;6.214;2022-09-27T23:13:37;3.88;;;2.25;;
62338;SDS011;48368;53.406;6.214;2022-09-27T23:16:14;4.85;;;2.25;;
62338;SDS011;48368;53.406;6.214;2022-09-27T23:18:44;5.75;;;2.72;;
62338;SDS011;48368;53.406;6.214;2022-09-27T23:21:12;6.10;;;2.53;;
62338;SDS011;48368;53.406;6.214;2022-09-27T23:23:42;7.00;;;2.47;;
62338;SDS011;48368;53.406;6.214;2022-09-27T23:26:10;4.80;;;2.92;;
62338;SDS011;48368;53.406;6.214;2022-09-27T23:28:37;5.13;;;2.88;;
62338;SDS011;48368;53.406;6.214;2022-09-27T23:31:04;6.45;;;3.40;;
62338;SDS011;48368;53.406;6.214;2022-09-27T23:33:35;6.78;;;3.65;;
62338;SDS011;48368;53.406;6.214;2022-09-27T23:36:03;7.50;;;3.22;;
62338;SDS011;48368;53.406;6.214;2022-09-27T23:38:31;6.78;;;3.78;;
62338;SDS011;48368;53.406;6.214;2022-09-27T23:40:57;6.90;;;3.53;;
62338;SDS011;48368;53.406;6.214;2022-09-27T23:43:24;6.60;;;3.35;;
62338;SDS011;48368;53.406;6.214;2022-09-27T23:45:50;8.68;;;4.20;;
62338;SDS011;48368;53.406;6.214;2022-09-27T23:48:20;9.57;;;4.50;;
62338;SDS011;48368;53.406;6.214;2022-09-27T23:50:45;8.05;;;4.50;;
62338;SDS011;48368;53.406;6.214;2022-09-27T23:53:14;8.13;;;4.32;;
62338;SDS011;48368;53.406;6.214;2022-09-27T23:55:40;9.00;;;4.63;;
62338;SDS011;48368;53.406;6.214;2022-09-27T23:58:06;7.90;;;4.32;;
